Time;durP1;ratioP1;P1;durP2;ratioP2;P2;SDS_P1;SDS_P2;PMS_P1;PMS_P2;Temp;Humidity;BMP_temperature;BMP_pressure;BME280_temperature;BME280_humidity;BME280_pressure;Samples;Min_cycle;Max_cycle;Signal;HPM_P1;HPM_P2
2021/12/01 00:01:52;;;;;;;;;;;;;;;;;;5009282;28;19986;-65
2021/12/01 00:04:23;;;;;;;;;;;;;;;;;;5028230;28;19928;-65
2021/12/01 00:06:54;;;;;;;;;;;;;;;;;;5026806;28;19933;-65
2021/12/01 00:09:21;;;;;;;;;;;;;;;;;;5027954;28;19936;-64
2021/12/01 00:11:53;;;;;;;;;;;;;;;;;;5025456;28;20350;-64
2021/12/01 00:14:23;;;;;;;;;;;;;;;;;;5029685;28;20546;-64
2021/12/01 00:16:53;;;;;;;;;;;;;;;;;;5029093;28;19925;-64
2021/12/01 00:19:22;;;;;;;;;;;;;;;;;;5029382;28;19925;-64
2021/12/01 00:21:51;;;;;;;;;;;;;;;;;;5026912;28;19929;-65
2021/12/01 00:24:28;;;;;;;;;;;;;;;;;;5027830;28;19926;-65
2021/12/01 00:27:00;;;;;;;;;;;;;;;;;;5027736;28;19925;-65
2021/12/01 00:29:29;;;;;;;;;;;;;;;;;;5028531;28;19936;-63
2021/12/01 00:31:57;;;;;;;;;;;;;;;;;;5027448;28;20020;-64
2021/12/01 00:34:27;;;;;;;;;;;;;;;;;;5029073;28;19925;-64
2021/12/01 00:37:00;;;;;;;;;;;;;;;;;;5025340;28;20513;-65
2021/12/01 00:39:31;;;;;;;;;;;;;;;;;;5037946;28;19932;-65
2021/12/01 00:42:00;;;;;;;;;;;;;;;;;;5026082;28;20019;-65
2021/12/01 00:44:31;;;;;;;;;;;;;;;;;;5040225;28;19987;-65
2021/12/01 00:49:43;;;;;;;;;;;;;;;;;;5018037;28;19937;-65
2021/12/01 00:52:11;;;;;;;;;;;;;;;;;;5028281;28;19936;-65
2021/12/01 00:54:39;;;;;;;;;;;;;;;;;;5011881;28;20016;-64
2021/12/01 00:57:07;;;;;;;;;;;;;;;;;;5030291;28;19925;-64
2021/12/01 00:59:38;;;;;;;;;;;;;;;;;;5019212;28;19940;-64
2021/12/01 01:02:08;;;;;;;;;;;;;;;;;;5028485;28;19925;-65
2021/12/01 01:04:39;;;;;;;;;;;;;;;;;;5027551;28;19925;-64
2021/12/01 01:07:07;;;;;;;;;;;;;;;;;;5028828;28;19925;-65
2021/12/01 01:09:43;;;;;;;;;;;;;;;;;;5024915;28;19925;-64
2021/12/01 01:18:05;;;;;;;;;;;;;;;;;;5024192;28;19943;-64
2021/12/01 01:20:42;;;;;;;;;;;;;;;;;;5027410;28;19925;-64
2021/12/01 01:23:11;;;;;;;;;;;;;;;;;;5028292;28;19939;-65
2021/12/01 01:25:41;;;;;;;;;;;;;;;;;;5022744;28;19925;-65
2021/12/01 01:28:10;;;;;;;;;;;;;;;;;;5031146;28;19929;-66
2021/12/01 01:31:01;;;;;;;;;;;;;;;;;;5026586;28;19936;-65
2021/12/01 01:33:30;;;;;;;;;;;;;;;;;;5025252;28;19929;-65
2021/12/01 01:36:02;;;;;;;;;;;;;;;;;;5007475;28;20366;-65
2021/12/01 01:38:32;;;;;;;;;;;;;;;;;;5029255;28;19993;-65
2021/12/01 01:41:02;;;;;;;;;;;;;;;;;;5027846;28;19925;-65
2021/12/01 01:43:35;;;;;;;;;;;;;;;;;;5022716;28;19929;-64
2021/12/01 01:46:09;;;;;;;;;;;;;;;;;;5012293;28;19959;-65
2021/12/01 01:48:55;;;;;;;;;;;;;;;;;;5024385;28;19936;-64
2021/12/01 01:51:25;;;;;;;;;;;;;;;;;;5016352;28;19932;-65
2021/12/01 01:53:56;;;;;;;;;;;;;;;;;;5026680;28;20028;-65
2021/12/01 01:56:26;;;;;;;;;;;;;;;;;;5022946;28;19929;-65
2021/12/01 01:58:59;;;;;;;;;;;;;;;;;;5024600;28;19972;-65
2021/12/01 02:04:32;;;;;;;;;;;;;;;;;;5008874;28;19925;-64
2021/12/01 02:07:04;;;;;;;;;;;;;;;;;;5020799;28;20298;-64
2021/12/01 02:09:36;;;;;;;;;;;;;;;;;;5024711;28;19931;-65
2021/12/01 02:12:03;;;;;;;;;;;;;;;;;;5023476;28;19929;-64
2021/12/01 02:14:31;;;;;;;;;;;;;;;;;;5027656;28;19933;-65
2021/12/01 02:17:16;;;;;;;;;;;;;;;;;;5024783;28;19941;-65
2021/12/01 02:19:48;;;;;;;;;;;;;;;;;;5025149;28;20387;-65
2021/12/01 02:22:19;;;;;;;;;;;;;;;;;;5025641;28;19925;-65
2021/12/01 02:24:50;;;;;;;;;;;;;;;;;;5018572;28;19974;-65
2021/12/01 02:27:19;;;;;;;;;;;;;;;;;;5026171;28;20516;-65
2021/12/01 02:29:48;;;;;;;;;;;;;;;;;;5020981;28;19932;-65
2021/12/01 02:32:18;;;;;;;;;;;;;;;;;;5025276;28;19948;-65
2021/12/01 02:35:01;;;;;;;;;;;;;;;;;;5026361;28;19952;-65
2021/12/01 02:37:32;;;;;;;;;;;;;;;;;;5020856;28;19924;-65
2021/12/01 02:40:01;;;;;;;;;;;;;;;;;;5026112;28;20270;-65
2021/12/01 02:42:32;;;;;;;;;;;;;;;;;;5025332;28;20343;-65
2021/12/01 02:45:00;;;;;;;;;;;;;;;;;;5026641;28;19925;-65
2021/12/01 02:47:31;;;;;;;;;;;;;;;;;;5020352;28;19929;-65
2021/12/01 02:50:02;;;;;;;;;;;;;;;;;;5024067;28;19925;-64
2021/12/01 02:52:32;;;;;;;;;;;;;;;;;;5017664;28;20332;-64
2021/12/01 02:55:03;;;;;;;;;;;;;;;;;;5020841;28;20386;-65
2021/12/01 02:57:31;;;;;;;;;;;;;;;;;;5022722;28;20416;-65
2021/12/01 03:00:02;;;;;;;;;;;;;;;;;;5026984;28;20385;-65
2021/12/01 03:02:30;;;;;;;;;;;;;;;;;;5019465;28;20621;-65
2021/12/01 03:04:58;;;;;;;;;;;;;;;;;;5025407;28;19925;-65
2021/12/01 03:07:27;;;;;;;;;;;;;;;;;;5026391;28;19925;-65
2021/12/01 03:09:55;;;;;;;;;;;;;;;;;;5026485;28;19940;-65
2021/12/01 03:12:27;;;;;;;;;;;;;;;;;;5022207;28;19974;-65
2021/12/01 03:14:59;;;;;;;;;;;;;;;;;;5020710;28;19925;-66
2021/12/01 03:17:33;;;;;;;;;;;;;;;;;;5024718;28;20236;-65
2021/12/01 03:20:01;;;;;;;;;;;;;;;;;;5025613;28;20419;-65
2021/12/01 03:22:33;;;;;;;;;;;;;;;;;;5017505;28;19925;-65
2021/12/01 03:25:04;;;;;;;;;;;;;;;;;;5023217;28;19929;-65
2021/12/01 03:27:32;;;;;;;;;;;;;;;;;;5020376;28;19933;-65
2021/12/01 03:30:02;;;;;;;;;;;;;;;;;;5021855;28;19972;-65
2021/12/01 03:32:34;;;;;;;;;;;;;;;;;;5027003;28;19932;-65
2021/12/01 03:35:04;;;;;;;;;;;;;;;;;;5026150;28;19929;-65
2021/12/01 03:37:34;;;;;;;;;;;;;;;;;;5021864;28;19936;-65
2021/12/01 03:40:04;;;;;;;;;;;;;;;;;;5025103;28;19944;-65
2021/12/01 03:42:31;;;;;;;;;;;;;;;;;;5027712;28;19948;-65
2021/12/01 03:45:00;;;;;;;;;;;;;;;;;;5024487;28;19925;-65
2021/12/01 03:47:29;;;;;;;;;;;;;;;;;;5025110;28;19939;-65
2021/12/01 03:49:57;;;;;;;;;;;;;;;;;;5018315;28;19959;-65
2021/12/01 03:52:28;;;;;;;;;;;;;;;;;;5015115;28;19933;-65
2021/12/01 03:54:57;;;;;;;;;;;;;;;;;;5024357;28;19939;-65
2021/12/01 03:57:30;;;;;;;;;;;;;;;;;;5028673;28;19933;-65
2021/12/01 03:59:59;;;;;;;;;;;;;;;;;;5028826;28;19944;-65
2021/12/01 04:02:32;;;;;;;;;;;;;;;;;;5027945;28;20355;-65
2021/12/01 04:04:59;;;;;;;;;;;;;;;;;;5025708;28;19929;-66
2021/12/01 04:07:29;;;;;;;;;;;;;;;;;;5022322;28;19926;-65
2021/12/01 04:09:59;;;;;;;;;;;;;;;;;;5024439;28;19930;-65
2021/12/01 04:12:30;;;;;;;;;;;;;;;;;;5025777;28;19925;-65
2021/12/01 04:15:01;;;;;;;;;;;;;;;;;;5026948;28;20565;-65
2021/12/01 04:17:36;;;;;;;;;;;;;;;;;;5026904;28;20361;-65
2021/12/01 04:20:05;;;;;;;;;;;;;;;;;;5026918;28;19925;-65
2021/12/01 04:22:34;;;;;;;;;;;;;;;;;;5029913;28;20323;-65
2021/12/01 04:25:04;;;;;;;;;;;;;;;;;;5019776;28;19940;-65
2021/12/01 04:27:31;;;;;;;;;;;;;;;;;;5022744;28;19929;-65
2021/12/01 04:30:01;;;;;;;;;;;;;;;;;;5038050;28;19925;-65
2021/12/01 04:32:32;;;;;;;;;;;;;;;;;;5029367;28;19925;-65
2021/12/01 04:35:02;;;;;;;;;;;;;;;;;;5030309;28;19935;-65
2021/12/01 04:37:29;;;;;;;;;;;;;;;;;;5022416;28;19936;-65
2021/12/01 04:40:01;;;;;;;;;;;;;;;;;;5028949;28;19940;-65
2021/12/01 04:42:30;;;;;;;;;;;;;;;;;;5027488;28;19932;-65
2021/12/01 04:45:00;;;;;;;;;;;;;;;;;;5017876;28;19979;-65
2021/12/01 04:47:29;;;;;;;;;;;;;;;;;;5026666;28;19933;-65
2021/12/01 04:49:58;;;;;;;;;;;;;;;;;;5026802;28;20298;-65
2021/12/01 04:52:26;;;;;;;;;;;;;;;;;;5025374;28;19940;-65
2021/12/01 04:54:56;;;;;;;;;;;;;;;;;;5029068;28;19995;-65
2021/12/01 04:57:24;;;;;;;;;;;;;;;;;;5025925;28;19933;-65
2021/12/01 04:59:53;;;;;;;;;;;;;;;;;;5029271;28;20501;-65
2021/12/01 05:02:22;;;;;;;;;;;;;;;;;;5024494;28;19926;-65
2021/12/01 05:04:52;;;;;;;;;;;;;;;;;;5028855;28;19925;-65
2021/12/01 05:07:19;;;;;;;;;;;;;;;;;;5024876;28;19925;-65
2021/12/01 05:09:49;;;;;;;;;;;;;;;;;;5027760;28;20524;-65
2021/12/01 05:12:20;;;;;;;;;;;;;;;;;;5027421;28;19951;-65
2021/12/01 05:14:49;;;;;;;;;;;;;;;;;;5025573;28;20413;-65
2021/12/01 05:17:20;;;;;;;;;;;;;;;;;;5027222;28;19998;-65
2021/12/01 05:19:48;;;;;;;;;;;;;;;;;;5025552;28;20120;-65
2021/12/01 05:22:17;;;;;;;;;;;;;;;;;;5027904;28;19970;-65
2021/12/01 05:24:45;;;;;;;;;;;;;;;;;;5029122;28;20081;-65
2021/12/01 05:27:16;;;;;;;;;;;;;;;;;;5025714;28;19932;-65
2021/12/01 05:29:44;;;;;;;;;;;;;;;;;;5026172;28;19929;-65
2021/12/01 05:32:17;;;;;;;;;;;;;;;;;;5009167;28;19925;-65
2021/12/01 05:34:47;;;;;;;;;;;;;;;;;;5027675;28;19925;-65
2021/12/01 05:37:21;;;;;;;;;;;;;;;;;;5026719;28;19925;-65
2021/12/01 05:39:59;;;;;;;;;;;;;;;;;;5026485;28;19925;-65
2021/12/01 05:42:31;;;;;;;;;;;;;;;;;;5026586;28;19925;-65
2021/12/01 05:44:59;;;;;;;;;;;;;;;;;;5029691;28;19940;-65
2021/12/01 05:47:30;;;;;;;;;;;;;;;;;;5016749;28;19925;-65
2021/12/01 05:50:03;;;;;;;;;;;;;;;;;;5025847;28;20035;-65
2021/12/01 05:52:34;;;;;;;;;;;;;;;;;;5043530;28;19925;-65
2021/12/01 05:55:01;;;;;;;;;;;;;;;;;;5029063;28;19975;-64
2021/12/01 05:57:31;;;;;;;;;;;;;;;;;;5039546;28;19936;-65
2021/12/01 06:00:01;;;;;;;;;;;;;;;;;;5025182;28;20424;-65
2021/12/01 06:02:30;;;;;;;;;;;;;;;;;;5020438;28;19925;-65
2021/12/01 06:05:00;;;;;;;;;;;;;;;;;;5028110;28;19925;-65
2021/12/01 06:07:29;;;;;;;;;;;;;;;;;;5008805;28;19940;-65
2021/12/01 06:10:02;;;;;;;;;;;;;;;;;;5025362;28;20500;-65
2021/12/01 06:12:32;;;;;;;;;;;;;;;;;;5027835;28;20494;-65
2021/12/01 06:15:03;;;;;;;;;;;;;;;;;;5021585;28;19929;-65
2021/12/01 06:17:31;;;;;;;;;;;;;;;;;;5027000;28;20258;-65
2021/12/01 06:20:01;;;;;;;;;;;;;;;;;;5025781;28;20558;-65
2021/12/01 06:22:34;;;;;;;;;;;;;;;;;;5032532;28;19970;-65
2021/12/01 06:25:05;;;;;;;;;;;;;;;;;;5024206;28;19929;-65
2021/12/01 06:27:39;;;;;;;;;;;;;;;;;;5022653;28;19928;-64
2021/12/01 06:30:06;;;;;;;;;;;;;;;;;;5021940;28;19929;-65
2021/12/01 06:32:36;;;;;;;;;;;;;;;;;;5028063;28;19929;-65
2021/12/01 06:35:06;;;;;;;;;;;;;;;;;;5024222;28;19959;-65
2021/12/01 06:37:34;;;;;;;;;;;;;;;;;;5023485;28;19947;-65
2021/12/01 06:40:02;;;;;;;;;;;;;;;;;;5025205;28;19982;-65
2021/12/01 06:42:43;;;;;;;;;;;;;;;;;;5024033;28;19968;-65
2021/12/01 06:45:13;;;;;;;;;;;;;;;;;;5020964;28;19925;-65
2021/12/01 06:47:45;;;;;;;;;;;;;;;;;;5021230;28;20627;-65
2021/12/01 06:50:13;;;;;;;;;;;;;;;;;;5023332;28;19939;-65
2021/12/01 06:52:44;;;;;;;;;;;;;;;;;;5024091;28;20355;-65
2021/12/01 06:55:12;;;;;;;;;;;;;;;;;;5027451;28;19925;-65
2021/12/01 06:57:41;;;;;;;;;;;;;;;;;;5022281;28;19932;-65
2021/12/01 07:00:13;;;;;;;;;;;;;;;;;;5024130;28;19933;-65
2021/12/01 07:02:44;;;;;;;;;;;;;;;;;;5022499;28;20429;-65
2021/12/01 07:05:14;;;;;;;;;;;;;;;;;;5028909;28;19933;-64
2021/12/01 07:07:43;;;;;;;;;;;;;;;;;;5036400;28;19933;-64
2021/12/01 07:10:26;;;;;;;;;;;;;;;;;;5044926;28;19964;-65
2021/12/01 07:13:34;;;;;;;;;;;;;;;;;;5016839;28;19933;-65
2021/12/01 07:16:08;;;;;;;;;;;;;;;;;;5034973;28;19941;-67
2021/12/01 07:18:39;;;;;;;;;;;;;;;;;;5022607;28;20330;-67
2021/12/01 07:21:09;;;;;;;;;;;;;;;;;;5032946;28;19925;-64
2021/12/01 07:23:40;;;;;;;;;;;;;;;;;;5021560;28;19929;-64
2021/12/01 07:26:11;;;;;;;;;;;;;;;;;;5019792;28;20422;-64
2021/12/01 07:28:43;;;;;;;;;;;;;;;;;;5016074;28;19940;-66
2021/12/01 07:31:13;;;;;;;;;;;;;;;;;;5026805;28;19933;-65
2021/12/01 07:33:43;;;;;;;;;;;;;;;;;;5027127;28;19933;-65
2021/12/01 07:36:16;;;;;;;;;;;;;;;;;;5027360;28;20019;-65
2021/12/01 07:38:53;;;;;;;;;;;;;;;;;;5024636;28;20557;-65
2021/12/01 07:41:27;;;;;;;;;;;;;;;;;;5012727;28;19933;-64
2021/12/01 07:43:57;;;;;;;;;;;;;;;;;;5021696;28;19940;-65
2021/12/01 07:46:28;;;;;;;;;;;;;;;;;;5025007;28;19929;-65
2021/12/01 07:48:59;;;;;;;;;;;;;;;;;;5020999;28;19933;-64
2021/12/01 07:51:29;;;;;;;;;;;;;;;;;;5019973;28;19925;-65
2021/12/01 07:54:00;;;;;;;;;;;;;;;;;;5022409;28;19929;-65
2021/12/01 07:56:32;;;;;;;;;;;;;;;;;;5022957;28;19953;-65
2021/12/01 07:59:06;;;;;;;;;;;;;;;;;;5029619;28;20048;-65
2021/12/01 08:01:36;;;;;;;;;;;;;;;;;;5024220;28;20590;-68
2021/12/01 08:04:08;;;;;;;;;;;;;;;;;;5024265;28;19925;-67
2021/12/01 08:06:40;;;;;;;;;;;;;;;;;;5028029;28;20323;-67
2021/12/01 08:09:11;;;;;;;;;;;;;;;;;;5027583;28;19924;-67
2021/12/01 08:11:40;;;;;;;;;;;;;;;;;;5027010;28;19940;-68
2021/12/01 08:14:08;;;;;;;;;;;;;;;;;;5026518;28;19929;-69
2021/12/01 08:16:42;;;;;;;;;;;;;;;;;;5027585;28;19936;-66
2021/12/01 08:19:16;;;;;;;;;;;;;;;;;;5025080;28;19976;-68
2021/12/01 08:21:48;;;;;;;;;;;;;;;;;;5022263;28;19952;-68
2021/12/01 08:24:20;;;;;;;;;;;;;;;;;;5027777;28;20015;-68
2021/12/01 08:26:49;;;;;;;;;;;;;;;;;;5025254;28;19929;-69
2021/12/01 08:29:18;;;;;;;;;;;;;;;;;;5026490;28;19925;-68
2021/12/01 08:31:48;;;;;;;;;;;;;;;;;;5023321;28;19982;-69
2021/12/01 08:34:19;;;;;;;;;;;;;;;;;;5023073;28;19925;-69
2021/12/01 08:36:49;;;;;;;;;;;;;;;;;;5026896;28;19935;-69
2021/12/01 08:39:20;;;;;;;;;;;;;;;;;;5024364;28;19943;-69
2021/12/01 08:41:50;;;;;;;;;;;;;;;;;;5019854;28;19978;-68
2021/12/01 08:44:20;;;;;;;;;;;;;;;;;;5028840;28;19929;-68
2021/12/01 08:46:54;;;;;;;;;;;;;;;;;;5025783;28;19925;-68
2021/12/01 08:49:29;;;;;;;;;;;;;;;;;;5020934;28;19936;-67
2021/12/01 08:51:58;;;;;;;;;;;;;;;;;;5022699;28;20092;-67
2021/12/01 08:54:27;;;;;;;;;;;;;;;;;;5024033;28;19925;-69
2021/12/01 08:56:57;;;;;;;;;;;;;;;;;;5025580;28;19925;-70
2021/12/01 08:59:26;;;;;;;;;;;;;;;;;;5024992;28;19941;-66
2021/12/01 09:01:56;;;;;;;;;;;;;;;;;;5016535;28;20544;-68
2021/12/01 09:04:28;;;;;;;;;;;;;;;;;;5019868;28;20312;-67
2021/12/01 09:06:59;;;;;;;;;;;;;;;;;;5023122;28;19925;-66
2021/12/01 09:09:30;;;;;;;;;;;;;;;;;;5023940;28;19955;-66
2021/12/01 09:12:00;;;;;;;;;;;;;;;;;;5022471;28;19935;-66
2021/12/01 09:14:30;;;;;;;;;;;;;;;;;;5025758;28;19951;-68
2021/12/01 09:17:01;;;;;;;;;;;;;;;;;;5026614;28;19933;-67
2021/12/01 09:19:32;;;;;;;;;;;;;;;;;;5020853;28;19932;-66
2021/12/01 09:22:02;;;;;;;;;;;;;;;;;;5026750;28;19932;-67
2021/12/01 09:24:38;;;;;;;;;;;;;;;;;;5028249;28;20616;-68
2021/12/01 09:27:10;;;;;;;;;;;;;;;;;;5024480;28;20378;-68
2021/12/01 09:29:43;;;;;;;;;;;;;;;;;;5025190;28;19925;-69
2021/12/01 09:32:15;;;;;;;;;;;;;;;;;;5022845;28;19930;-68
2021/12/01 09:34:47;;;;;;;;;;;;;;;;;;5024318;28;19929;-64
2021/12/01 09:37:26;;;;;;;;;;;;;;;;;;5019387;28;19940;-67
2021/12/01 09:39:57;;;;;;;;;;;;;;;;;;5025045;28;19925;-67
2021/12/01 09:42:28;;;;;;;;;;;;;;;;;;5022372;28;19933;-68
2021/12/01 09:44:57;;;;;;;;;;;;;;;;;;5024843;28;20386;-67
2021/12/01 09:47:28;;;;;;;;;;;;;;;;;;5020659;28;19929;-67
2021/12/01 09:49:59;;;;;;;;;;;;;;;;;;5023514;28;20275;-67
2021/12/01 09:52:29;;;;;;;;;;;;;;;;;;5025184;28;20411;-67
2021/12/01 09:54:58;;;;;;;;;;;;;;;;;;5019437;28;19991;-67
2021/12/01 09:57:29;;;;;;;;;;;;;;;;;;5023114;28;19925;-67
2021/12/01 09:59:58;;;;;;;;;;;;;;;;;;5018434;28;19925;-67
2021/12/01 10:02:28;;;;;;;;;;;;;;;;;;5021716;28;19925;-67
2021/12/01 10:04:57;;;;;;;;;;;;;;;;;;5003467;28;20747;-67
2021/12/01 10:07:29;;;;;;;;;;;;;;;;;;5028246;28;20347;-67
2021/12/01 10:10:00;;;;;;;;;;;;;;;;;;5022078;28;19929;-67
2021/12/01 10:12:31;;;;;;;;;;;;;;;;;;5022867;28;20024;-67
2021/12/01 10:15:00;;;;;;;;;;;;;;;;;;5021186;28;19929;-67
2021/12/01 10:17:31;;;;;;;;;;;;;;;;;;5030954;28;19936;-67
2021/12/01 10:20:00;;;;;;;;;;;;;;;;;;5022927;28;19930;-67
2021/12/01 10:22:30;;;;;;;;;;;;;;;;;;5026254;28;19975;-66
2021/12/01 10:24:59;;;;;;;;;;;;;;;;;;5022060;28;19931;-68
2021/12/01 10:27:30;;;;;;;;;;;;;;;;;;5020745;28;20246;-66
2021/12/01 10:30:02;;;;;;;;;;;;;;;;;;5025628;28;19940;-67
2021/12/01 10:32:32;;;;;;;;;;;;;;;;;;5025402;28;19933;-66
2021/12/01 10:35:05;;;;;;;;;;;;;;;;;;5022453;28;20008;-67
2021/12/01 10:37:35;;;;;;;;;;;;;;;;;;5020033;28;19936;-67
2021/12/01 10:40:05;;;;;;;;;;;;;;;;;;5021088;28;20352;-67
2021/12/01 10:42:36;;;;;;;;;;;;;;;;;;5024566;28;19979;-67
2021/12/01 10:45:07;;;;;;;;;;;;;;;;;;5023483;28;19929;-66
2021/12/01 10:47:36;;;;;;;;;;;;;;;;;;5018355;28;19933;-65
2021/12/01 10:50:08;;;;;;;;;;;;;;;;;;5018445;28;19933;-66
2021/12/01 10:52:36;;;;;;;;;;;;;;;;;;5024424;28;20521;-66
2021/12/01 10:55:10;;;;;;;;;;;;;;;;;;5023705;28;19933;-66
2021/12/01 10:57:41;;;;;;;;;;;;;;;;;;5020438;28;19940;-68
2021/12/01 11:00:12;;;;;;;;;;;;;;;;;;5023240;28;19925;-66
2021/12/01 11:02:40;;;;;;;;;;;;;;;;;;5019623;28;19932;-65
2021/12/01 11:05:12;;;;;;;;;;;;;;;;;;5019641;28;20016;-68
2021/12/01 11:07:40;;;;;;;;;;;;;;;;;;5016366;28;19937;-65
2021/12/01 11:10:10;;;;;;;;;;;;;;;;;;5024194;28;19943;-66
2021/12/01 11:12:39;;;;;;;;;;;;;;;;;;5028177;28;19933;-65
2021/12/01 11:15:24;;;;;;;;;;;;;;;;;;5023174;28;19943;-67
2021/12/01 11:17:51;;;;;;;;;;;;;;;;;;5029541;28;20011;-67
2021/12/01 11:20:20;;;;;;;;;;;;;;;;;;5010636;28;19925;-68
2021/12/01 11:22:51;;;;;;;;;;;;;;;;;;5030776;28;19925;-67
2021/12/01 11:25:22;;;;;;;;;;;;;;;;;;5030243;28;19929;-67
2021/12/01 11:28:03;;;;;;;;;;;;;;;;;;5028645;28;19929;-67
2021/12/01 11:30:33;;;;;;;;;;;;;;;;;;5028936;28;19932;-68
2021/12/01 11:33:19;;;;;;;;;;;;;;;;;;5029265;28;19925;-67
2021/12/01 11:35:50;;;;;;;;;;;;;;;;;;5028495;28;19936;-67
2021/12/01 11:38:19;;;;;;;;;;;;;;;;;;5026425;28;19925;-67
2021/12/01 11:40:48;;;;;;;;;;;;;;;;;;5027704;28;19925;-67
2021/12/01 11:43:17;;;;;;;;;;;;;;;;;;5022193;28;19990;-67
2021/12/01 11:46:09;;;;;;;;;;;;;;;;;;5026993;28;19929;-67
2021/12/01 11:49:05;;;;;;;;;;;;;;;;;;5022866;28;19963;-66
2021/12/01 11:51:37;;;;;;;;;;;;;;;;;;5023402;28;19929;-69
2021/12/01 11:54:07;;;;;;;;;;;;;;;;;;5019502;28;20425;-69
2021/12/01 11:56:37;;;;;;;;;;;;;;;;;;5026062;28;19951;-68
2021/12/01 11:59:08;;;;;;;;;;;;;;;;;;5024878;28;19929;-68
2021/12/01 12:01:38;;;;;;;;;;;;;;;;;;5018709;28;19941;-69
2021/12/01 12:04:11;;;;;;;;;;;;;;;;;;5024191;28;19940;-66
2021/12/01 12:06:40;;;;;;;;;;;;;;;;;;5026102;28;19933;-68
2021/12/01 12:09:49;;;;;;;;;;;;;;;;;;5026086;28;19925;-68
2021/12/01 12:12:20;;;;;;;;;;;;;;;;;;5019637;28;19963;-68
2021/12/01 12:15:06;;;;;;;;;;;;;;;;;;5019587;28;19933;-68
2021/12/01 12:17:37;;;;;;;;;;;;;;;;;;5012696;28;20149;-69
2021/12/01 12:20:21;;;;;;;;;;;;;;;;;;5025221;28;19933;-69
2021/12/01 12:23:01;;;;;;;;;;;;;;;;;;5027033;28;19929;-66
2021/12/01 12:26:06;;;;;;;;;;;;;;;;;;5019640;28;19929;-68
2021/12/01 12:28:36;;;;;;;;;;;;;;;;;;5028276;28;20366;-68
2021/12/01 12:31:05;;;;;;;;;;;;;;;;;;5027694;28;20413;-68
2021/12/01 12:33:37;;;;;;;;;;;;;;;;;;5013568;28;19925;-69
2021/12/01 12:36:26;;;;;;;;;;;;;;;;;;5031793;28;20267;-69
2021/12/01 12:38:57;;;;;;;;;;;;;;;;;;5038648;28;20298;-70
2021/12/01 12:41:28;;;;;;;;;;;;;;;;;;5041756;28;19925;-70
2021/12/01 12:43:57;;;;;;;;;;;;;;;;;;5041850;28;20028;-70
2021/12/01 12:46:48;;;;;;;;;;;;;;;;;;5048225;28;19921;-70
2021/12/01 12:49:17;;;;;;;;;;;;;;;;;;5046518;28;19952;-68
2021/12/01 12:51:47;;;;;;;;;;;;;;;;;;5028822;28;19939;-70
2021/12/01 12:54:19;;;;;;;;;;;;;;;;;;5022208;28;19933;-70
2021/12/01 12:56:50;;;;;;;;;;;;;;;;;;5027291;28;19925;-69
2021/12/01 12:59:20;;;;;;;;;;;;;;;;;;5024981;28;19991;-69
2021/12/01 13:01:59;;;;;;;;;;;;;;;;;;5024202;28;19925;-69
2021/12/01 13:04:51;;;;;;;;;;;;;;;;;;5027789;28;19928;-69
2021/12/01 13:07:22;;;;;;;;;;;;;;;;;;5024634;28;19945;-69
2021/12/01 13:09:54;;;;;;;;;;;;;;;;;;5026931;28;19936;-68
2021/12/01 13:12:26;;;;;;;;;;;;;;;;;;5026138;28;19968;-68
2021/12/01 13:14:59;;;;;;;;;;;;;;;;;;5019957;28;19979;-67
2021/12/01 13:17:29;;;;;;;;;;;;;;;;;;5023634;28;19940;-67
2021/12/01 13:20:00;;;;;;;;;;;;;;;;;;5024860;28;19925;-67
2021/12/01 13:22:31;;;;;;;;;;;;;;;;;;5024813;28;19925;-68
2021/12/01 13:25:21;;;;;;;;;;;;;;;;;;5024418;28;19933;-68
2021/12/01 13:27:54;;;;;;;;;;;;;;;;;;5022181;28;19952;-68
2021/12/01 13:30:22;;;;;;;;;;;;;;;;;;5026142;28;19929;-66
2021/12/01 13:32:53;;;;;;;;;;;;;;;;;;5026703;28;19933;-66
2021/12/01 13:35:21;;;;;;;;;;;;;;;;;;5009097;28;19926;-67
2021/12/01 13:37:52;;;;;;;;;;;;;;;;;;5024716;28;19925;-66
2021/12/01 13:40:22;;;;;;;;;;;;;;;;;;5022986;28;19932;-66
2021/12/01 13:42:54;;;;;;;;;;;;;;;;;;5022389;28;19933;-66
2021/12/01 13:45:26;;;;;;;;;;;;;;;;;;5023379;28;20511;-66
2021/12/01 13:47:56;;;;;;;;;;;;;;;;;;5024262;28;19925;-67
2021/12/01 13:50:24;;;;;;;;;;;;;;;;;;5024864;28;19925;-66
2021/12/01 13:52:52;;;;;;;;;;;;;;;;;;5022682;28;19925;-67
2021/12/01 13:55:25;;;;;;;;;;;;;;;;;;5023636;28;19982;-66
2021/12/01 13:57:56;;;;;;;;;;;;;;;;;;5026752;28;19925;-65
2021/12/01 14:00:25;;;;;;;;;;;;;;;;;;5027757;28;19929;-68
2021/12/01 14:02:59;;;;;;;;;;;;;;;;;;5022552;28;19975;-66
2021/12/01 14:05:29;;;;;;;;;;;;;;;;;;5022145;28;19929;-65
2021/12/01 14:07:58;;;;;;;;;;;;;;;;;;5022887;28;19990;-64
2021/12/01 14:10:25;;;;;;;;;;;;;;;;;;5009836;28;19929;-63
2021/12/01 14:12:54;;;;;;;;;;;;;;;;;;5027227;28;19932;-65
2021/12/01 14:15:27;;;;;;;;;;;;;;;;;;5024034;28;19925;-67
2021/12/01 14:18:29;;;;;;;;;;;;;;;;;;5026347;28;20385;-66
2021/12/01 14:20:57;;;;;;;;;;;;;;;;;;5025629;28;19939;-72
2021/12/01 14:23:30;;;;;;;;;;;;;;;;;;5024094;28;20012;-69
2021/12/01 14:26:02;;;;;;;;;;;;;;;;;;5023205;28;19930;-69
2021/12/01 14:28:38;;;;;;;;;;;;;;;;;;5021888;28;19960;-68
2021/12/01 14:31:07;;;;;;;;;;;;;;;;;;5024191;28;19929;-67
2021/12/01 14:33:37;;;;;;;;;;;;;;;;;;5026139;28;19947;-67
2021/12/01 14:36:08;;;;;;;;;;;;;;;;;;5025895;28;19937;-68
2021/12/01 14:38:42;;;;;;;;;;;;;;;;;;5025870;28;20594;-67
2021/12/01 14:41:11;;;;;;;;;;;;;;;;;;5022232;28;19925;-68
2021/12/01 14:43:41;;;;;;;;;;;;;;;;;;5021263;28;19986;-67
2021/12/01 14:46:12;;;;;;;;;;;;;;;;;;5017463;28;20553;-68
2021/12/01 14:48:44;;;;;;;;;;;;;;;;;;5021425;28;19944;-68
2021/12/01 14:51:19;;;;;;;;;;;;;;;;;;5017342;28;19929;-69
2021/12/01 14:53:47;;;;;;;;;;;;;;;;;;5023261;28;19933;-69
2021/12/01 14:56:18;;;;;;;;;;;;;;;;;;5020593;28;20651;-68
2021/12/01 14:58:49;;;;;;;;;;;;;;;;;;5027410;28;19951;-68
2021/12/01 15:01:18;;;;;;;;;;;;;;;;;;5019071;28;20034;-69
2021/12/01 15:03:52;;;;;;;;;;;;;;;;;;5020496;28;19933;-68
2021/12/01 15:06:22;;;;;;;;;;;;;;;;;;5023667;28;19933;-69
2021/12/01 15:08:52;;;;;;;;;;;;;;;;;;5024267;28;19936;-68
2021/12/01 15:11:25;;;;;;;;;;;;;;;;;;5022169;28;19925;-68
2021/12/01 15:13:55;;;;;;;;;;;;;;;;;;5026101;28;19933;-69
2021/12/01 15:16:26;;;;;;;;;;;;;;;;;;5019643;28;19965;-68
2021/12/01 15:19:13;;;;;;;;;;;;;;;;;;5026284;28;20596;-68
2021/12/01 15:21:44;;;;;;;;;;;;;;;;;;5021858;28;19940;-68
2021/12/01 15:24:13;;;;;;;;;;;;;;;;;;5029085;28;20323;-68
2021/12/01 15:26:49;;;;;;;;;;;;;;;;;;5022197;28;19929;-68
2021/12/01 15:29:23;;;;;;;;;;;;;;;;;;5019748;28;19929;-67
2021/12/01 15:32:03;;;;;;;;;;;;;;;;;;5019672;28;19925;-68
2021/12/01 15:34:33;;;;;;;;;;;;;;;;;;5024272;28;19929;-67
2021/12/01 15:37:06;;;;;;;;;;;;;;;;;;5021069;28;19972;-69
2021/12/01 15:39:37;;;;;;;;;;;;;;;;;;5019886;28;19929;-70
2021/12/01 15:42:06;;;;;;;;;;;;;;;;;;5023019;28;19929;-68
2021/12/01 15:44:37;;;;;;;;;;;;;;;;;;5022464;28;20043;-69
2021/12/01 15:47:07;;;;;;;;;;;;;;;;;;5020729;28;19939;-72
2021/12/01 15:49:43;;;;;;;;;;;;;;;;;;5021528;28;20509;-69
2021/12/01 15:52:13;;;;;;;;;;;;;;;;;;5020869;28;19925;-67
2021/12/01 15:54:45;;;;;;;;;;;;;;;;;;5027617;28;19929;-69
2021/12/01 15:57:27;;;;;;;;;;;;;;;;;;5022662;28;20038;-68
2021/12/01 15:59:59;;;;;;;;;;;;;;;;;;5028619;28;20011;-67
2021/12/01 16:02:35;;;;;;;;;;;;;;;;;;5023353;28;19933;-67
2021/12/01 16:05:15;;;;;;;;;;;;;;;;;;5024983;28;19940;-69
2021/12/01 16:07:47;;;;;;;;;;;;;;;;;;5024696;28;20013;-69
2021/12/01 16:10:14;;;;;;;;;;;;;;;;;;5027680;28;19936;-69
2021/12/01 16:12:50;;;;;;;;;;;;;;;;;;5024091;28;19933;-70
2021/12/01 16:15:19;;;;;;;;;;;;;;;;;;5017100;28;19933;-69
2021/12/01 16:17:52;;;;;;;;;;;;;;;;;;5019750;28;19925;-73
2021/12/01 16:20:32;;;;;;;;;;;;;;;;;;5024092;28;20350;-71
2021/12/01 16:23:01;;;;;;;;;;;;;;;;;;5025936;28;19925;-71
2021/12/01 16:25:48;;;;;;;;;;;;;;;;;;5013129;28;19933;-72
2021/12/01 16:28:17;;;;;;;;;;;;;;;;;;5022656;28;19979;-73
2021/12/01 16:30:46;;;;;;;;;;;;;;;;;;5026290;28;19925;-71
2021/12/01 16:33:17;;;;;;;;;;;;;;;;;;5024559;28;19929;-73
2021/12/01 16:35:49;;;;;;;;;;;;;;;;;;5026125;28;20385;-67
2021/12/01 16:38:20;;;;;;;;;;;;;;;;;;5026698;28;19928;-67
2021/12/01 16:40:49;;;;;;;;;;;;;;;;;;5028058;28;19933;-66
2021/12/01 16:43:20;;;;;;;;;;;;;;;;;;5024683;28;20070;-67
2021/12/01 16:45:49;;;;;;;;;;;;;;;;;;5024815;28;19925;-66
2021/12/01 16:48:17;;;;;;;;;;;;;;;;;;5026696;28;19990;-66
2021/12/01 16:50:47;;;;;;;;;;;;;;;;;;5022734;28;20346;-67
2021/12/01 16:53:16;;;;;;;;;;;;;;;;;;5027485;28;19929;-65
2021/12/01 16:55:45;;;;;;;;;;;;;;;;;;5022125;28;19925;-66
2021/12/01 16:58:19;;;;;;;;;;;;;;;;;;5026199;28;19929;-66
2021/12/01 17:00:49;;;;;;;;;;;;;;;;;;5025608;28;19936;-66
2021/12/01 17:03:41;;;;;;;;;;;;;;;;;;5025942;28;19929;-66
2021/12/01 17:06:11;;;;;;;;;;;;;;;;;;5023165;28;19944;-66
2021/12/01 17:11:08;;;;;;;;;;;;;;;;;;5026766;28;19987;-66
2021/12/01 17:13:38;;;;;;;;;;;;;;;;;;5013498;28;19926;-66
2021/12/01 17:16:09;;;;;;;;;;;;;;;;;;5024429;28;19936;-66
2021/12/01 17:18:47;;;;;;;;;;;;;;;;;;5017372;28;19924;-67
2021/12/01 17:21:17;;;;;;;;;;;;;;;;;;5024683;28;19929;-67
2021/12/01 17:23:46;;;;;;;;;;;;;;;;;;5020430;28;19925;-66
2021/12/01 17:26:18;;;;;;;;;;;;;;;;;;5023375;28;21293;-66
2021/12/01 17:28:51;;;;;;;;;;;;;;;;;;5025423;28;19964;-66
2021/12/01 17:31:28;;;;;;;;;;;;;;;;;;5021928;28;19925;-67